sensor_id;sensor_type;location;lat;lon;timestamp;P1;durP1;ratioP1;P2;durP2;ratioP2
12334;SDS011;6233;51.560;9.986;2022-08-19T00:03:00;18.60;;;16.63;;
12334;SDS011;6233;51.560;9.986;2022-08-19T00:06:02;16.27;;;14.57;;
12334;SDS011;6233;51.560;9.986;2022-08-19T00:09:06;19.07;;;16.07;;
12334;SDS011;6233;51.560;9.986;2022-08-19T00:12:09;18.13;;;16.20;;
12334;SDS011;6233;51.560;9.986;2022-08-19T00:15:12;17.23;;;15.37;;
12334;SDS011;6233;51.560;9.986;2022-08-19T00:18:16;17.13;;;15.33;;
12334;SDS011;6233;51.560;9.986;2022-08-19T00:21:17;15.73;;;14.13;;
12334;SDS011;6233;51.560;9.986;2022-08-19T00:24:19;15.27;;;13.00;;
12334;SDS011;6233;51.560;9.986;2022-08-19T00:27:21;15.80;;;13.37;;
12334;SDS011;6233;51.560;9.986;2022-08-19T00:30:26;13.80;;;12.40;;
12334;SDS011;6233;51.560;9.986;2022-08-19T00:33:29;14.07;;;12.40;;
12334;SDS011;6233;51.560;9.986;2022-08-19T00:36:34;13.07;;;11.73;;
12334;SDS011;6233;51.560;9.986;2022-08-19T00:39:37;14.23;;;12.43;;
12334;SDS011;6233;51.560;9.986;2022-08-19T00:42:40;12.93;;;11.13;;
12334;SDS011;6233;51.560;9.986;2022-08-19T00:45:42;14.13;;;11.77;;
12334;SDS011;6233;51.560;9.986;2022-08-19T00:48:44;12.23;;;10.97;;
12334;SDS011;6233;51.560;9.986;2022-08-19T00:51:47;12.13;;;10.97;;
12334;SDS011;6233;51.560;9.986;2022-08-19T00:54:51;13.67;;;11.67;;
12334;SDS011;6233;51.560;9.986;2022-08-19T00:57:56;12.80;;;11.10;;
12334;SDS011;6233;51.560;9.986;2022-08-19T01:01:02;13.87;;;11.03;;
12334;SDS011;6233;51.560;9.986;2022-08-19T01:04:05;12.03;;;10.83;;
12334;SDS011;6233;51.560;9.986;2022-08-19T01:07:07;12.90;;;11.33;;
12334;SDS011;6233;51.560;9.986;2022-08-19T01:10:16;13.57;;;11.47;;
12334;SDS011;6233;51.560;9.986;2022-08-19T01:13:23;13.00;;;11.80;;
12334;SDS011;6233;51.560;9.986;2022-08-19T01:16:27;13.07;;;11.10;;
12334;SDS011;6233;51.560;9.986;2022-08-19T01:19:33;13.47;;;11.40;;
12334;SDS011;6233;51.560;9.986;2022-08-19T01:22:45;13.60;;;11.17;;
12334;SDS011;6233;51.560;9.986;2022-08-19T01:25:51;14.23;;;11.00;;
12334;SDS011;6233;51.560;9.986;2022-08-19T01:28:56;12.27;;;10.53;;
12334;SDS011;6233;51.560;9.986;2022-08-19T01:32:05;11.90;;;10.73;;
12334;SDS011;6233;51.560;9.986;2022-08-19T01:35:29;13.17;;;11.80;;
12334;SDS011;6233;51.560;9.986;2022-08-19T01:38:34;16.90;;;11.80;;
12334;SDS011;6233;51.560;9.986;2022-08-19T01:41:44;12.53;;;11.30;;
12334;SDS011;6233;51.560;9.986;2022-08-19T01:44:46;12.53;;;11.43;;
12334;SDS011;6233;51.560;9.986;2022-08-19T01:47:48;16.90;;;11.70;;
12334;SDS011;6233;51.560;9.986;2022-08-19T01:51:01;13.43;;;11.10;;
12334;SDS011;6233;51.560;9.986;2022-08-19T01:54:03;14.30;;;10.97;;
12334;SDS011;6233;51.560;9.986;2022-08-19T01:57:07;13.07;;;11.43;;
12334;SDS011;6233;51.560;9.986;2022-08-19T02:00:12;12.93;;;11.67;;
12334;SDS011;6233;51.560;9.986;2022-08-19T02:03:16;13.17;;;11.20;;
12334;SDS011;6233;51.560;9.986;2022-08-19T02:06:18;12.33;;;10.63;;
12334;SDS011;6233;51.560;9.986;2022-08-19T02:09:27;11.60;;;9.80;;
12334;SDS011;6233;51.560;9.986;2022-08-19T02:12:29;14.27;;;11.27;;
12334;SDS011;6233;51.560;9.986;2022-08-19T02:15:31;12.30;;;11.03;;
12334;SDS011;6233;51.560;9.986;2022-08-19T02:18:33;13.30;;;10.70;;
12334;SDS011;6233;51.560;9.986;2022-08-19T02:21:34;11.07;;;9.97;;
12334;SDS011;6233;51.560;9.986;2022-08-19T02:24:36;13.87;;;10.37;;
12334;SDS011;6233;51.560;9.986;2022-08-19T02:27:39;11.80;;;10.17;;
12334;SDS011;6233;51.560;9.986;2022-08-19T02:30:42;13.47;;;10.40;;
12334;SDS011;6233;51.560;9.986;2022-08-19T02:33:44;11.90;;;9.67;;
12334;SDS011;6233;51.560;9.986;2022-08-19T02:36:46;10.47;;;9.03;;
12334;SDS011;6233;51.560;9.986;2022-08-19T02:39:55;11.13;;;9.40;;
12334;SDS011;6233;51.560;9.986;2022-08-19T02:42:57;9.47;;;8.47;;
12334;SDS011;6233;51.560;9.986;2022-08-19T02:45:59;12.40;;;8.40;;
12334;SDS011;6233;51.560;9.986;2022-08-19T02:49:02;9.60;;;8.60;;
12334;SDS011;6233;51.560;9.986;2022-08-19T02:52:06;10.10;;;8.93;;
12334;SDS011;6233;51.560;9.986;2022-08-19T02:55:08;10.03;;;9.03;;
12334;SDS011;6233;51.560;9.986;2022-08-19T02:58:10;9.33;;;8.47;;
12334;SDS011;6233;51.560;9.986;2022-08-19T03:01:19;9.13;;;8.20;;
12334;SDS011;6233;51.560;9.986;2022-08-19T03:04:33;10.80;;;9.20;;
12334;SDS011;6233;51.560;9.986;2022-08-19T03:07:35;9.30;;;8.40;;
12334;SDS011;6233;51.560;9.986;2022-08-19T03:10:42;15.13;;;9.37;;
12334;SDS011;6233;51.560;9.986;2022-08-19T03:13:45;13.60;;;9.20;;
12334;SDS011;6233;51.560;9.986;2022-08-19T03:16:48;10.83;;;8.60;;
12334;SDS011;6233;51.560;9.986;2022-08-19T03:19:51;8.80;;;7.90;;
12334;SDS011;6233;51.560;9.986;2022-08-19T03:22:53;8.27;;;7.47;;
12334;SDS011;6233;51.560;9.986;2022-08-19T03:25:54;10.03;;;7.87;;
12334;SDS011;6233;51.560;9.986;2022-08-19T03:29:04;8.50;;;7.63;;
12334;SDS011;6233;51.560;9.986;2022-08-19T03:32:08;9.30;;;8.30;;
12334;SDS011;6233;51.560;9.986;2022-08-19T03:35:31;8.60;;;7.13;;
12334;SDS011;6233;51.560;9.986;2022-08-19T03:38:33;10.17;;;7.67;;
12334;SDS011;6233;51.560;9.986;2022-08-19T03:41:40;7.67;;;6.67;;
12334;SDS011;6233;51.560;9.986;2022-08-19T03:44:46;8.00;;;7.20;;
12334;SDS011;6233;51.560;9.986;2022-08-19T03:47:48;9.63;;;6.80;;
12334;SDS011;6233;51.560;9.986;2022-08-19T03:50:50;7.63;;;6.87;;
12334;SDS011;6233;51.560;9.986;2022-08-19T03:53:52;9.50;;;7.10;;
12334;SDS011;6233;51.560;9.986;2022-08-19T03:56:56;7.23;;;6.53;;
12334;SDS011;6233;51.560;9.986;2022-08-19T03:59:58;7.40;;;6.70;;
12334;SDS011;6233;51.560;9.986;2022-08-19T04:03:14;8.27;;;5.93;;
12334;SDS011;6233;51.560;9.986;2022-08-19T04:06:17;6.77;;;6.07;;
12334;SDS011;6233;51.560;9.986;2022-08-19T04:09:26;7.47;;;6.33;;
12334;SDS011;6233;51.560;9.986;2022-08-19T04:12:28;7.23;;;6.53;;
12334;SDS011;6233;51.560;9.986;2022-08-19T04:15:30;7.57;;;6.57;;
12334;SDS011;6233;51.560;9.986;2022-08-19T04:18:37;6.77;;;5.50;;
12334;SDS011;6233;51.560;9.986;2022-08-19T04:21:40;5.60;;;5.00;;
12334;SDS011;6233;51.560;9.986;2022-08-19T04:24:44;7.13;;;5.83;;
12334;SDS011;6233;51.560;9.986;2022-08-19T04:27:45;5.73;;;5.23;;
12334;SDS011;6233;51.560;9.986;2022-08-19T04:30:49;5.97;;;5.37;;
12334;SDS011;6233;51.560;9.986;2022-08-19T04:33:55;6.93;;;5.63;;
12334;SDS011;6233;51.560;9.986;2022-08-19T04:36:58;6.63;;;5.00;;
12334;SDS011;6233;51.560;9.986;2022-08-19T04:40:00;8.87;;;5.43;;
12334;SDS011;6233;51.560;9.986;2022-08-19T04:43:20;5.50;;;4.93;;
12334;SDS011;6233;51.560;9.986;2022-08-19T04:46:22;5.43;;;4.93;;
12334;SDS011;6233;51.560;9.986;2022-08-19T04:49:44;10.83;;;5.40;;
12334;SDS011;6233;51.560;9.986;2022-08-19T04:52:45;5.90;;;5.13;;
12334;SDS011;6233;51.560;9.986;2022-08-19T04:55:47;6.27;;;5.33;;
12334;SDS011;6233;51.560;9.986;2022-08-19T04:58:49;5.70;;;5.20;;
12334;SDS011;6233;51.560;9.986;2022-08-19T05:01:53;5.67;;;5.17;;
12334;SDS011;6233;51.560;9.986;2022-08-19T05:04:58;5.60;;;4.83;;
12334;SDS011;6233;51.560;9.986;2022-08-19T05:08:01;6.13;;;4.83;;
12334;SDS011;6233;51.560;9.986;2022-08-19T05:11:13;5.50;;;5.00;;
12334;SDS011;6233;51.560;9.986;2022-08-19T05:14:15;6.10;;;5.23;;
12334;SDS011;6233;51.560;9.986;2022-08-19T05:17:17;4.80;;;4.30;;
12334;SDS011;6233;51.560;9.986;2022-08-19T05:20:29;6.00;;;4.60;;
12334;SDS011;6233;51.560;9.986;2022-08-19T05:23:49;5.53;;;4.90;;
12334;SDS011;6233;51.560;9.986;2022-08-19T05:26:51;5.83;;;5.13;;
12334;SDS011;6233;51.560;9.986;2022-08-19T05:29:59;5.63;;;5.13;;
12334;SDS011;6233;51.560;9.986;2022-08-19T05:33:02;6.60;;;5.80;;
12334;SDS011;6233;51.560;9.986;2022-08-19T05:36:04;7.63;;;6.10;;
12334;SDS011;6233;51.560;9.986;2022-08-19T05:39:12;6.83;;;5.90;;
12334;SDS011;6233;51.560;9.986;2022-08-19T05:42:16;8.30;;;5.90;;
12334;SDS011;6233;51.560;9.986;2022-08-19T05:45:25;5.70;;;5.20;;
12334;SDS011;6233;51.560;9.986;2022-08-19T05:48:27;6.53;;;5.93;;
12334;SDS011;6233;51.560;9.986;2022-08-19T05:51:29;6.87;;;5.47;;
12334;SDS011;6233;51.560;9.986;2022-08-19T05:54:31;6.17;;;5.57;;
12334;SDS011;6233;51.560;9.986;2022-08-19T05:57:33;6.37;;;5.77;;
12334;SDS011;6233;51.560;9.986;2022-08-19T06:00:35;5.80;;;4.70;;
12334;SDS011;6233;51.560;9.986;2022-08-19T06:03:38;5.03;;;4.47;;
12334;SDS011;6233;51.560;9.986;2022-08-19T06:06:40;4.83;;;3.80;;
12334;SDS011;6233;51.560;9.986;2022-08-19T06:09:42;5.03;;;4.37;;
12334;SDS011;6233;51.560;9.986;2022-08-19T06:13:04;3.60;;;3.30;;
12334;SDS011;6233;51.560;9.986;2022-08-19T06:16:06;3.83;;;3.37;;
12334;SDS011;6233;51.560;9.986;2022-08-19T06:19:09;4.03;;;3.73;;
12334;SDS011;6233;51.560;9.986;2022-08-19T06:22:16;3.70;;;3.40;;
12334;SDS011;6233;51.560;9.986;2022-08-19T06:25:18;4.33;;;3.30;;
12334;SDS011;6233;51.560;9.986;2022-08-19T06:28:20;3.63;;;3.33;;
12334;SDS011;6233;51.560;9.986;2022-08-19T06:31:26;4.07;;;3.17;;
12334;SDS011;6233;51.560;9.986;2022-08-19T06:34:30;3.90;;;3.60;;
12334;SDS011;6233;51.560;9.986;2022-08-19T06:37:33;3.97;;;3.57;;
12334;SDS011;6233;51.560;9.986;2022-08-19T06:40:35;3.97;;;3.50;;
12334;SDS011;6233;51.560;9.986;2022-08-19T06:43:39;4.23;;;3.83;;
12334;SDS011;6233;51.560;9.986;2022-08-19T06:46:43;6.67;;;4.50;;
12334;SDS011;6233;51.560;9.986;2022-08-19T06:49:56;4.07;;;3.67;;
12334;SDS011;6233;51.560;9.986;2022-08-19T06:53:05;5.17;;;4.17;;
12334;SDS011;6233;51.560;9.986;2022-08-19T06:56:09;4.20;;;3.90;;
12334;SDS011;6233;51.560;9.986;2022-08-19T06:59:13;4.20;;;3.47;;
12334;SDS011;6233;51.560;9.986;2022-08-19T07:02:19;4.23;;;3.83;;
12334;SDS011;6233;51.560;9.986;2022-08-19T07:05:22;5.10;;;4.43;;
12334;SDS011;6233;51.560;9.986;2022-08-19T07:08:23;4.17;;;3.87;;
12334;SDS011;6233;51.560;9.986;2022-08-19T07:11:29;6.37;;;5.13;;
12334;SDS011;6233;51.560;9.986;2022-08-19T07:14:34;4.53;;;4.13;;
12334;SDS011;6233;51.560;9.986;2022-08-19T07:17:38;4.00;;;3.63;;
12334;SDS011;6233;51.560;9.986;2022-08-19T07:20:42;4.57;;;3.47;;
12334;SDS011;6233;51.560;9.986;2022-08-19T07:23:44;3.57;;;3.20;;
12334;SDS011;6233;51.560;9.986;2022-08-19T07:26:46;5.17;;;3.60;;
12334;SDS011;6233;51.560;9.986;2022-08-19T07:29:52;9.87;;;8.70;;
12334;SDS011;6233;51.560;9.986;2022-08-19T07:32:57;4.67;;;3.87;;
12334;SDS011;6233;51.560;9.986;2022-08-19T07:36:04;4.33;;;3.90;;
12334;SDS011;6233;51.560;9.986;2022-08-19T07:39:11;4.17;;;3.70;;
12334;SDS011;6233;51.560;9.986;2022-08-19T07:42:24;4.70;;;4.00;;
12334;SDS011;6233;51.560;9.986;2022-08-19T07:45:26;5.27;;;3.97;;
12334;SDS011;6233;51.560;9.986;2022-08-19T07:48:29;4.23;;;3.87;;
12334;SDS011;6233;51.560;9.986;2022-08-19T07:51:34;8.63;;;5.60;;
12334;SDS011;6233;51.560;9.986;2022-08-19T07:54:37;6.07;;;5.03;;
12334;SDS011;6233;51.560;9.986;2022-08-19T07:57:41;5.30;;;4.80;;
12334;SDS011;6233;51.560;9.986;2022-08-19T08:00:48;4.20;;;3.90;;
12334;SDS011;6233;51.560;9.986;2022-08-19T08:03:52;5.27;;;3.87;;
12334;SDS011;6233;51.560;9.986;2022-08-19T08:07:13;5.77;;;5.20;;
12334;SDS011;6233;51.560;9.986;2022-08-19T08:10:35;3.80;;;3.50;;
12334;SDS011;6233;51.560;9.986;2022-08-19T08:13:36;4.33;;;3.90;;
12334;SDS011;6233;51.560;9.986;2022-08-19T08:16:39;4.83;;;3.80;;
12334;SDS011;6233;51.560;9.986;2022-08-19T08:19:47;4.30;;;3.90;;
12334;SDS011;6233;51.560;9.986;2022-08-19T08:22:52;3.60;;;3.30;;
12334;SDS011;6233;51.560;9.986;2022-08-19T08:26:12;6.03;;;3.67;;
12334;SDS011;6233;51.560;9.986;2022-08-19T08:29:16;3.67;;;3.13;;
12334;SDS011;6233;51.560;9.986;2022-08-19T08:32:18;3.90;;;3.60;;
12334;SDS011;6233;51.560;9.986;2022-08-19T08:35:20;4.23;;;3.70;;
12334;SDS011;6233;51.560;9.986;2022-08-19T08:38:24;4.37;;;3.97;;
12334;SDS011;6233;51.560;9.986;2022-08-19T08:41:35;3.47;;;3.27;;
12334;SDS011;6233;51.560;9.986;2022-08-19T08:48:15;8.97;;;6.60;;
12334;SDS011;6233;51.560;9.986;2022-08-19T08:51:29;7.33;;;3.93;;
12334;SDS011;6233;51.560;9.986;2022-08-19T08:54:41;4.10;;;3.60;;
12334;SDS011;6233;51.560;9.986;2022-08-19T08:57:59;4.97;;;3.90;;
12334;SDS011;6233;51.560;9.986;2022-08-19T09:01:04;4.70;;;4.20;;
12334;SDS011;6233;51.560;9.986;2022-08-19T09:04:06;4.93;;;4.43;;
12334;SDS011;6233;51.560;9.986;2022-08-19T09:07:23;4.50;;;4.10;;
12334;SDS011;6233;51.560;9.986;2022-08-19T09:10:51;4.03;;;3.53;;
12334;SDS011;6233;51.560;9.986;2022-08-19T09:17:40;4.63;;;3.70;;
12334;SDS011;6233;51.560;9.986;2022-08-19T09:20:42;4.23;;;3.83;;
12334;SDS011;6233;51.560;9.986;2022-08-19T09:23:44;4.20;;;3.70;;
12334;SDS011;6233;51.560;9.986;2022-08-19T09:26:51;4.67;;;3.40;;
12334;SDS011;6233;51.560;9.986;2022-08-19T09:29:53;4.40;;;3.70;;
12334;SDS011;6233;51.560;9.986;2022-08-19T09:32:56;3.67;;;3.33;;
12334;SDS011;6233;51.560;9.986;2022-08-19T09:36:02;4.10;;;3.17;;
12334;SDS011;6233;51.560;9.986;2022-08-19T09:39:08;4.03;;;3.50;;
12334;SDS011;6233;51.560;9.986;2022-08-19T09:42:16;3.43;;;3.13;;
12334;SDS011;6233;51.560;9.986;2022-08-19T09:45:30;4.27;;;3.60;;
12334;SDS011;6233;51.560;9.986;2022-08-19T09:48:33;5.07;;;3.60;;
12334;SDS011;6233;51.560;9.986;2022-08-19T09:51:35;4.83;;;3.30;;
12334;SDS011;6233;51.560;9.986;2022-08-19T09:54:37;3.50;;;2.90;;
12334;SDS011;6233;51.560;9.986;2022-08-19T09:57:44;4.47;;;3.27;;
12334;SDS011;6233;51.560;9.986;2022-08-19T10:00:46;4.17;;;3.73;;
12334;SDS011;6233;51.560;9.986;2022-08-19T10:03:53;3.80;;;3.30;;
12334;SDS011;6233;51.560;9.986;2022-08-19T10:06:56;3.37;;;2.70;;
12334;SDS011;6233;51.560;9.986;2022-08-19T10:09:59;3.57;;;2.50;;
12334;SDS011;6233;51.560;9.986;2022-08-19T10:13:02;2.60;;;2.40;;
12334;SDS011;6233;51.560;9.986;2022-08-19T10:16:05;3.33;;;2.60;;
12334;SDS011;6233;51.560;9.986;2022-08-19T10:19:10;3.07;;;2.60;;
12334;SDS011;6233;51.560;9.986;2022-08-19T10:22:12;2.03;;;1.80;;
12334;SDS011;6233;51.560;9.986;2022-08-19T10:25:15;2.87;;;2.57;;
12334;SDS011;6233;51.560;9.986;2022-08-19T10:28:17;2.27;;;2.13;;
12334;SDS011;6233;51.560;9.986;2022-08-19T10:31:21;5.97;;;2.30;;
12334;SDS011;6233;51.560;9.986;2022-08-19T10:34:44;3.07;;;2.20;;
12334;SDS011;6233;51.560;9.986;2022-08-19T10:37:49;2.13;;;1.93;;
12334;SDS011;6233;51.560;9.986;2022-08-19T10:41:12;2.30;;;2.10;;
12334;SDS011;6233;51.560;9.986;2022-08-19T10:44:16;2.70;;;2.00;;
12334;SDS011;6233;51.560;9.986;2022-08-19T10:47:19;3.03;;;2.70;;
12334;SDS011;6233;51.560;9.986;2022-08-19T10:50:26;2.27;;;2.07;;
12334;SDS011;6233;51.560;9.986;2022-08-19T10:56:59;3.20;;;2.40;;
12334;SDS011;6233;51.560;9.986;2022-08-19T11:00:02;3.43;;;3.13;;
12334;SDS011;6233;51.560;9.986;2022-08-19T11:03:05;3.33;;;2.27;;
12334;SDS011;6233;51.560;9.986;2022-08-19T11:06:09;2.50;;;2.30;;
12334;SDS011;6233;51.560;9.986;2022-08-19T11:09:11;2.57;;;2.17;;
12334;SDS011;6233;51.560;9.986;2022-08-19T11:12:13;2.90;;;2.70;;
12334;SDS011;6233;51.560;9.986;2022-08-19T11:15:16;2.80;;;2.50;;
12334;SDS011;6233;51.560;9.986;2022-08-19T11:18:18;2.30;;;2.10;;
12334;SDS011;6233;51.560;9.986;2022-08-19T11:21:21;2.47;;;2.27;;
12334;SDS011;6233;51.560;9.986;2022-08-19T11:24:26;2.53;;;2.33;;
12334;SDS011;6233;51.560;9.986;2022-08-19T11:27:29;3.17;;;2.87;;
12334;SDS011;6233;51.560;9.986;2022-08-19T11:30:43;1.93;;;1.83;;
12334;SDS011;6233;51.560;9.986;2022-08-19T11:33:45;2.43;;;1.90;;
12334;SDS011;6233;51.560;9.986;2022-08-19T11:36:48;1.90;;;1.80;;
12334;SDS011;6233;51.560;9.986;2022-08-19T11:39:51;3.10;;;2.20;;
12334;SDS011;6233;51.560;9.986;2022-08-19T11:42:54;3.30;;;2.10;;
12334;SDS011;6233;51.560;9.986;2022-08-19T11:45:56;2.50;;;2.30;;
12334;SDS011;6233;51.560;9.986;2022-08-19T11:48:59;3.03;;;2.60;;
12334;SDS011;6233;51.560;9.986;2022-08-19T11:52:01;2.77;;;2.40;;
12334;SDS011;6233;51.560;9.986;2022-08-19T11:55:03;2.50;;;2.30;;
12334;SDS011;6233;51.560;9.986;2022-08-19T12:01:35;2.40;;;2.20;;
12334;SDS011;6233;51.560;9.986;2022-08-19T12:04:37;2.00;;;1.90;;
12334;SDS011;6233;51.560;9.986;2022-08-19T12:07:39;2.50;;;2.30;;
12334;SDS011;6233;51.560;9.986;2022-08-19T12:10:42;6.67;;;5.77;;
12334;SDS011;6233;51.560;9.986;2022-08-19T12:13:45;4.20;;;2.57;;
12334;SDS011;6233;51.560;9.986;2022-08-19T12:16:47;2.10;;;2.00;;
12334;SDS011;6233;51.560;9.986;2022-08-19T12:19:52;2.63;;;2.43;;
12334;SDS011;6233;51.560;9.986;2022-08-19T12:22:54;3.13;;;2.10;;
12334;SDS011;6233;51.560;9.986;2022-08-19T12:25:56;2.73;;;2.00;;
12334;SDS011;6233;51.560;9.986;2022-08-19T12:28:58;2.30;;;2.10;;
12334;SDS011;6233;51.560;9.986;2022-08-19T12:32:00;2.73;;;2.30;;
12334;SDS011;6233;51.560;9.986;2022-08-19T12:35:04;4.27;;;2.90;;
12334;SDS011;6233;51.560;9.986;2022-08-19T12:38:08;3.47;;;2.67;;
12334;SDS011;6233;51.560;9.986;2022-08-19T12:41:11;4.77;;;2.70;;
12334;SDS011;6233;51.560;9.986;2022-08-19T12:44:14;3.30;;;3.00;;
12334;SDS011;6233;51.560;9.986;2022-08-19T12:47:17;4.33;;;3.17;;
12334;SDS011;6233;51.560;9.986;2022-08-19T12:50:20;3.10;;;2.83;;
12334;SDS011;6233;51.560;9.986;2022-08-19T12:53:22;5.10;;;4.53;;
12334;SDS011;6233;51.560;9.986;2022-08-19T12:56:24;5.33;;;3.67;;
12334;SDS011;6233;51.560;9.986;2022-08-19T12:59:26;3.17;;;2.77;;
12334;SDS011;6233;51.560;9.986;2022-08-19T13:02:28;2.80;;;2.60;;
12334;SDS011;6233;51.560;9.986;2022-08-19T13:05:31;3.87;;;2.93;;
12334;SDS011;6233;51.560;9.986;2022-08-19T13:08:34;5.43;;;3.13;;
12334;SDS011;6233;51.560;9.986;2022-08-19T13:11:37;4.00;;;3.70;;
12334;SDS011;6233;51.560;9.986;2022-08-19T13:14:39;3.43;;;3.10;;
12334;SDS011;6233;51.560;9.986;2022-08-19T13:17:41;2.83;;;2.50;;
12334;SDS011;6233;51.560;9.986;2022-08-19T13:20:43;3.07;;;2.77;;
12334;SDS011;6233;51.560;9.986;2022-08-19T13:23:53;4.03;;;2.80;;
12334;SDS011;6233;51.560;9.986;2022-08-19T13:26:55;4.03;;;3.00;;
12334;SDS011;6233;51.560;9.986;2022-08-19T13:29:57;5.73;;;3.33;;
12334;SDS011;6233;51.560;9.986;2022-08-19T13:33:18;6.27;;;3.90;;
12334;SDS011;6233;51.560;9.986;2022-08-19T13:36:20;3.37;;;3.07;;
12334;SDS011;6233;51.560;9.986;2022-08-19T13:39:22;3.00;;;2.70;;
12334;SDS011;6233;51.560;9.986;2022-08-19T13:42:25;2.40;;;2.20;;
12334;SDS011;6233;51.560;9.986;2022-08-19T13:45:27;2.53;;;2.27;;
12334;SDS011;6233;51.560;9.986;2022-08-19T13:48:30;2.20;;;2.03;;
12334;SDS011;6233;51.560;9.986;2022-08-19T13:51:32;3.17;;;2.20;;
12334;SDS011;6233;51.560;9.986;2022-08-19T13:54:34;2.60;;;2.10;;
12334;SDS011;6233;51.560;9.986;2022-08-19T13:57:37;3.73;;;2.80;;
12334;SDS011;6233;51.560;9.986;2022-08-19T14:00:44;2.63;;;2.40;;
12334;SDS011;6233;51.560;9.986;2022-08-19T14:03:47;2.80;;;2.60;;
12334;SDS011;6233;51.560;9.986;2022-08-19T14:06:48;4.70;;;3.00;;
12334;SDS011;6233;51.560;9.986;2022-08-19T14:09:50;3.30;;;3.00;;
12334;SDS011;6233;51.560;9.986;2022-08-19T14:12:53;7.13;;;3.20;;
12334;SDS011;6233;51.560;9.986;2022-08-19T14:15:56;3.70;;;2.97;;
12334;SDS011;6233;51.560;9.986;2022-08-19T14:18:59;5.23;;;4.17;;
12334;SDS011;6233;51.560;9.986;2022-08-19T14:22:01;3.33;;;2.53;;
12334;SDS011;6233;51.560;9.986;2022-08-19T14:25:04;2.47;;;2.27;;
12334;SDS011;6233;51.560;9.986;2022-08-19T14:28:07;2.63;;;2.30;;
12334;SDS011;6233;51.560;9.986;2022-08-19T14:31:10;2.90;;;2.60;;
12334;SDS011;6233;51.560;9.986;2022-08-19T14:34:13;2.67;;;2.47;;
12334;SDS011;6233;51.560;9.986;2022-08-19T14:37:15;5.23;;;4.17;;
12334;SDS011;6233;51.560;9.986;2022-08-19T14:40:21;5.30;;;4.20;;
12334;SDS011;6233;51.560;9.986;2022-08-19T14:43:29;3.43;;;3.00;;
12334;SDS011;6233;51.560;9.986;2022-08-19T14:46:31;2.90;;;2.70;;
12334;SDS011;6233;51.560;9.986;2022-08-19T14:49:33;3.17;;;2.80;;
12334;SDS011;6233;51.560;9.986;2022-08-19T14:52:43;2.90;;;2.70;;
12334;SDS011;6233;51.560;9.986;2022-08-19T14:55:45;3.70;;;3.40;;
12334;SDS011;6233;51.560;9.986;2022-08-19T14:58:47;4.00;;;3.40;;
12334;SDS011;6233;51.560;9.986;2022-08-19T15:01:52;3.67;;;2.90;;
12334;SDS011;6233;51.560;9.986;2022-08-19T15:04:54;3.03;;;2.83;;
12334;SDS011;6233;51.560;9.986;2022-08-19T15:08:02;3.43;;;3.13;;
12334;SDS011;6233;51.560;9.986;2022-08-19T15:11:12;3.47;;;3.17;;
12334;SDS011;6233;51.560;9.986;2022-08-19T15:14:16;4.47;;;4.00;;
12334;SDS011;6233;51.560;9.986;2022-08-19T15:17:18;5.30;;;3.43;;
12334;SDS011;6233;51.560;9.986;2022-08-19T15:20:29;3.30;;;3.10;;
12334;SDS011;6233;51.560;9.986;2022-08-19T15:23:32;3.23;;;3.03;;
12334;SDS011;6233;51.560;9.986;2022-08-19T15:26:34;3.00;;;2.80;;
12334;SDS011;6233;51.560;9.986;2022-08-19T15:29:36;3.60;;;3.30;;
12334;SDS011;6233;51.560;9.986;2022-08-19T15:32:38;5.83;;;3.80;;
12334;SDS011;6233;51.560;9.986;2022-08-19T15:35:43;3.87;;;3.40;;
12334;SDS011;6233;51.560;9.986;2022-08-19T15:38:45;4.73;;;3.53;;
12334;SDS011;6233;51.560;9.986;2022-08-19T15:41:48;8.57;;;7.63;;
12334;SDS011;6233;51.560;9.986;2022-08-19T15:44:50;4.57;;;3.80;;
12334;SDS011;6233;51.560;9.986;2022-08-19T15:47:53;5.03;;;4.33;;
12334;SDS011;6233;51.560;9.986;2022-08-19T15:50:55;3.50;;;3.20;;
12334;SDS011;6233;51.560;9.986;2022-08-19T15:53:58;4.17;;;3.20;;
12334;SDS011;6233;51.560;9.986;2022-08-19T15:57:00;4.07;;;3.67;;
12334;SDS011;6233;51.560;9.986;2022-08-19T16:00:21;3.50;;;3.20;;
12334;SDS011;6233;51.560;9.986;2022-08-19T16:03:41;3.10;;;2.90;;
12334;SDS011;6233;51.560;9.986;2022-08-19T16:07:01;3.17;;;2.80;;
12334;SDS011;6233;51.560;9.986;2022-08-19T16:10:04;6.80;;;6.10;;
12334;SDS011;6233;51.560;9.986;2022-08-19T16:13:27;8.63;;;7.63;;
12334;SDS011;6233;51.560;9.986;2022-08-19T16:16:29;4.10;;;3.67;;
12334;SDS011;6233;51.560;9.986;2022-08-19T16:19:34;4.73;;;4.03;;
12334;SDS011;6233;51.560;9.986;2022-08-19T16:22:36;4.73;;;4.27;;
12334;SDS011;6233;51.560;9.986;2022-08-19T16:25:40;3.50;;;3.20;;
12334;SDS011;6233;51.560;9.986;2022-08-19T16:28:42;3.90;;;3.40;;
12334;SDS011;6233;51.560;9.986;2022-08-19T16:31:44;2.80;;;2.57;;
12334;SDS011;6233;51.560;9.986;2022-08-19T16:34:46;4.23;;;3.63;;
12334;SDS011;6233;51.560;9.986;2022-08-19T16:37:48;7.00;;;4.63;;
12334;SDS011;6233;51.560;9.986;2022-08-19T16:40:50;4.67;;;3.17;;
12334;SDS011;6233;51.560;9.986;2022-08-19T16:43:54;4.07;;;3.13;;
12334;SDS011;6233;51.560;9.986;2022-08-19T16:46:56;4.20;;;3.80;;
12334;SDS011;6233;51.560;9.986;2022-08-19T16:50:00;3.57;;;3.27;;
12334;SDS011;6233;51.560;9.986;2022-08-19T16:53:01;3.70;;;3.10;;
12334;SDS011;6233;51.560;9.986;2022-08-19T16:56:03;6.63;;;4.47;;
12334;SDS011;6233;51.560;9.986;2022-08-19T16:59:05;4.50;;;3.17;;
12334;SDS011;6233;51.560;9.986;2022-08-19T17:02:07;3.67;;;3.30;;
12334;SDS011;6233;51.560;9.986;2022-08-19T17:05:10;5.80;;;4.23;;
12334;SDS011;6233;51.560;9.986;2022-08-19T17:08:12;7.10;;;5.70;;
12334;SDS011;6233;51.560;9.986;2022-08-19T17:11:18;8.03;;;7.23;;
12334;SDS011;6233;51.560;9.986;2022-08-19T17:14:22;3.87;;;3.27;;
12334;SDS011;6233;51.560;9.986;2022-08-19T17:17:23;4.60;;;3.77;;
12334;SDS011;6233;51.560;9.986;2022-08-19T17:20:29;4.27;;;3.87;;
12334;SDS011;6233;51.560;9.986;2022-08-19T17:23:31;2.97;;;2.67;;
12334;SDS011;6233;51.560;9.986;2022-08-19T17:26:44;4.67;;;2.80;;
12334;SDS011;6233;51.560;9.986;2022-08-19T17:29:45;3.20;;;2.90;;
12334;SDS011;6233;51.560;9.986;2022-08-19T17:32:47;2.63;;;2.43;;
12334;SDS011;6233;51.560;9.986;2022-08-19T17:35:49;19.13;;;16.20;;
12334;SDS011;6233;51.560;9.986;2022-08-19T17:38:51;8.83;;;7.93;;
12334;SDS011;6233;51.560;9.986;2022-08-19T17:41:55;6.37;;;5.77;;
12334;SDS011;6233;51.560;9.986;2022-08-19T17:45:03;5.53;;;4.53;;
12334;SDS011;6233;51.560;9.986;2022-08-19T17:48:05;6.47;;;5.67;;
12334;SDS011;6233;51.560;9.986;2022-08-19T17:51:12;4.90;;;4.43;;
12334;SDS011;6233;51.560;9.986;2022-08-19T17:54:35;5.47;;;4.70;;
12334;SDS011;6233;51.560;9.986;2022-08-19T17:57:38;4.43;;;4.03;;
12334;SDS011;6233;51.560;9.986;2022-08-19T18:00:46;4.57;;;3.67;;
12334;SDS011;6233;51.560;9.986;2022-08-19T18:03:54;6.30;;;4.33;;
12334;SDS011;6233;51.560;9.986;2022-08-19T18:06:56;4.40;;;4.00;;
12334;SDS011;6233;51.560;9.986;2022-08-19T18:09:57;3.33;;;3.03;;
12334;SDS011;6233;51.560;9.986;2022-08-19T18:13:02;3.87;;;2.80;;
12334;SDS011;6233;51.560;9.986;2022-08-19T18:16:18;3.40;;;3.10;;
12334;SDS011;6233;51.560;9.986;2022-08-19T18:19:28;3.60;;;3.30;;
12334;SDS011;6233;51.560;9.986;2022-08-19T18:22:46;11.20;;;8.60;;
12334;SDS011;6233;51.560;9.986;2022-08-19T18:25:49;6.10;;;5.50;;
12334;SDS011;6233;51.560;9.986;2022-08-19T18:28:50;4.63;;;4.23;;
12334;SDS011;6233;51.560;9.986;2022-08-19T18:31:52;5.00;;;4.50;;
12334;SDS011;6233;51.560;9.986;2022-08-19T18:34:58;8.20;;;7.40;;
12334;SDS011;6233;51.560;9.986;2022-08-19T18:38:16;5.53;;;4.03;;
12334;SDS011;6233;51.560;9.986;2022-08-19T18:41:39;6.37;;;3.40;;
12334;SDS011;6233;51.560;9.986;2022-08-19T18:44:59;4.20;;;3.37;;
12334;SDS011;6233;51.560;9.986;2022-08-19T18:48:20;3.00;;;2.70;;
12334;SDS011;6233;51.560;9.986;2022-08-19T18:51:41;2.73;;;2.47;;
12334;SDS011;6233;51.560;9.986;2022-08-19T18:54:43;7.70;;;6.50;;
12334;SDS011;6233;51.560;9.986;2022-08-19T18:57:47;2.87;;;2.67;;
12334;SDS011;6233;51.560;9.986;2022-08-19T19:00:54;4.53;;;2.57;;
12334;SDS011;6233;51.560;9.986;2022-08-19T19:03:58;5.00;;;4.50;;